Chantaco — FMLM — position and weather

sailwx.info

Track history (hours):
 
Tides and Currents Weather Stations Pressure Air Temp Water Temp Dewpoint Dewpoint Depression Visibility Wind Speed Wind Dir Waves Ship Positions

Chantaco

Last reported at 2017-Aug-18 10:28 UTC. Time now 2017-Aug-18 23:46 UTC.
Position N 54°03' E 000°42'.

Length 143 m; draft 6.4 m.

Type: Tanker. MMSI: 228330700.

Date/timePositionNaut miles runAvg speedWind from/ knotsBaromVisibWave heightAir tempDewpointWater temp
2017-Aug-18 10:28N 54°03' E 000°42'27912.8
2017-Aug-17 12:44N 56°56' E 007°07'312.6
2017-Aug-17 12:30N 56°58' E 007°11'612.7
2017-Aug-17 11:59N 57°01' E 007°21'612.9
2017-Aug-17 11:30N 57°04' E 007°31'612.7
2017-Aug-17 11:00N 57°08' E 007°41'612.8
2017-Aug-17 10:30N 57°11' E 007°51'712.7
2017-Aug-17 09:59N 57°14' E 008°02'612.8
2017-Aug-17 09:29N 57°18' E 008°12'612.5
2017-Aug-17 09:00N 57°21' E 008°22'612.4
2017-Aug-17 08:30N 57°24' E 008°32'612.6
2017-Aug-17 08:00N 57°27' E 008°42'612.7
2017-Aug-17 07:30N 57°30' E 008°52'612.4
2017-Aug-17 06:59N 57°34' E 009°02'612.4
2017-Aug-17 06:30N 57°37' E 009°12'612.6
2017-Aug-17 05:59N 57°40' E 009°22'612.9
2017-Aug-17 05:30N 57°44' E 009°32'713.2
2017-Aug-17 04:59N 57°47' E 009°43'2313.2
2017-Aug-17 03:14N 57°59' E 010°20'1613.2
2017-Aug-17 02:00N 58°08' E 010°46'912.2
2017-Aug-17 01:14N 58°12' E 011°02'312.7
2017-Aug-17 00:59N 58°13' E 011°07'611.6
2017-Aug-17 00:30N 58°16' E 011°16'4 8.6
2017-Aug-17 00:00N 58°19' E 011°22'3 5.7
2017-Aug-16 23:30N 58°21' E 011°25'0 0.0
2017-Aug-15 02:53N 58°21' E 011°26'0 0.8
2017-Aug-15 02:30N 58°22' E 011°26'2 4.2
2017-Aug-15 02:00N 58°20' E 011°23'611.6
2017-Aug-15 01:30N 58°16' E 011°15'4 7.5
2017-Aug-15 01:00N 58°12' E 011°14'0 0.0
2017-Aug-14 22:26N 58°12' E 011°14'0 0.0
2017-Aug-14 20:52N 58°12' E 011°14'0 0.0
2017-Aug-14 18:28N 58°12' E 011°14'0 0.0
2017-Aug-14 17:58N 58°12' E 011°14'0 0.0
2017-Aug-14 17:28N 58°12' E 011°14'0 0.0
2017-Aug-14 16:58N 58°12' E 011°14'0 0.0
2017-Aug-14 16:28N 58°12' E 011°14'0 0.0
2017-Aug-14 11:16N 58°12' E 011°14'0 0.0
2017-Aug-14 10:58N 58°12' E 011°14'0 0.0
2017-Aug-14 02:19N 58°12' E 011°14'0 0.1
2017-Aug-14 01:52N 58°12' E 011°14'0 0.0
2017-Aug-13 18:25N 58°12' E 011°14'0 0.0
2017-Aug-13 17:58N 58°12' E 011°14'0 0.0
2017-Aug-13 17:28N 58°12' E 011°14'0 0.0
2017-Aug-13 14:28N 58°12' E 011°14'0 0.0
2017-Aug-13 09:28N 58°12' E 011°14'0 0.0
2017-Aug-13 08:58N 58°12' E 011°14'0 0.0
2017-Aug-13 07:51N 58°12' E 011°14'0 0.1
2017-Aug-13 06:10N 58°12' E 011°14'1 5.8
2017-Aug-13 05:56N 58°12' E 011°11'511.5
2017-Aug-13 05:28N 58°11' E 011°01'612.8
2017-Aug-13 05:00N 58°08' E 010°51'613.0
2017-Aug-13 04:30N 58°05' E 010°41'613.0
2017-Aug-13 04:00N 58°02' E 010°30'812.8
2017-Aug-13 03:22N 57°58' E 010°17'713.2
2017-Aug-13 02:51N 57°54' E 010°06'513.5
2017-Aug-13 02:30N 57°52' E 009°58'40612.5
2017-Aug-11 17:57N 52°19' E 003°11'5413.5
2017-Aug-11 13:59N 51°36' E 002°20'613.3
2017-Aug-11 13:30N 51°31' E 002°14'713.0
2017-Aug-11 13:00N 51°26' E 002°07'612.4
2017-Aug-11 12:30N 51°21' E 002°00'611.8
2017-Aug-11 12:00N 51°17' E 001°54'611.2
2017-Aug-11 11:30N 51°13' E 001°48'510.1
2017-Aug-11 11:00N 51°09' E 001°43'5 9.2
2017-Aug-11 10:30N 51°05' E 001°39'5 9.2
2017-Aug-11 10:00N 51°01' E 001°34'5 9.1
2017-Aug-11 09:30N 50°58' E 001°29'4 8.8
2017-Aug-11 09:00N 50°54' E 001°26'5 9.2
2017-Aug-11 08:30N 50°50' E 001°24'5 9.6
2017-Aug-11 08:00N 50°45' E 001°22'7810.9
2017-Aug-11 00:50N 49°47' E 000°01'412.7
2017-Aug-11 00:30N 49°43' W 000°03'612.5
2017-Aug-11 00:00N 49°37' W 000°05'612.1
2017-Aug-10 23:30N 49°31' W 000°05'510.6
2017-Aug-10 23:00N 49°30' E 000°02'5 9.6
2017-Aug-10 22:30N 49°28' E 000°10'1 1.2
2017-Aug-10 22:00N 49°29' E 000°10'1 1.1
2017-Aug-10 21:30N 49°29' E 000°11'0 0.0
2017-Aug-10 21:00N 49°29' E 000°11'0 0.0
2017-Aug-10 20:30N 49°29' E 000°11'0 0.0
2017-Aug-10 20:00N 49°29' E 000°11'0 0.0
2017-Aug-10 19:30N 49°29' E 000°11'0 0.0
2017-Aug-10 19:00N 49°29' E 000°11'0 0.0
2017-Aug-10 18:30N 49°29' E 000°11'0 0.0
2017-Aug-10 18:00N 49°29' E 000°11'0 0.0
2017-Aug-10 17:30N 49°29' E 000°11'0 0.0
2017-Aug-10 17:00N 49°29' E 000°11'0 0.0
2017-Aug-10 16:30N 49°29' E 000°11'0 0.0
2017-Aug-10 16:00N 49°29' E 000°11'0 0.0
2017-Aug-10 15:30N 49°29' E 000°11'0 0.0
2017-Aug-10 15:00N 49°29' E 000°11'0 0.0
2017-Aug-10 14:30N 49°29' E 000°11'0 0.0
2017-Aug-10 13:57N 49°29' E 000°11'0 0.0
2017-Aug-10 13:30N 49°29' E 000°11'0 0.0
2017-Aug-10 13:00N 49°29' E 000°11'0 0.0
2017-Aug-10 12:30N 49°29' E 000°11'0 0.0
2017-Aug-10 12:00N 49°29' E 000°11'0 0.0
2017-Aug-10 11:30N 49°29' E 000°11'0 0.0
2017-Aug-10 11:00N 49°29' E 000°11'0 0.0
2017-Aug-10 10:30N 49°29' E 000°11'0 0.0
2017-Aug-10 10:00N 49°29' E 000°11'0 0.0
2017-Aug-10 09:27N 49°29' E 000°11'0 0.0
2017-Aug-10 08:57N 49°29' E 000°11'0 0.0
2017-Aug-10 08:30N 49°29' E 000°11'0 0.0
2017-Aug-10 08:00N 49°29' E 000°11'0 0.0
2017-Aug-10 07:30N 49°29' E 000°11'0 0.0
2017-Aug-10 07:00N 49°29' E 000°11'0 0.0
2017-Aug-10 06:30N 49°29' E 000°11'0 0.0
2017-Aug-10 06:00N 49°29' E 000°11'0 0.0
2017-Aug-10 05:27N 49°29' E 000°11'0 0.0
2017-Aug-10 05:00N 49°29' E 000°11'0 0.0
2017-Aug-10 04:30N 49°29' E 000°11'0 0.0
2017-Aug-10 04:00N 49°29' E 000°11'0 0.0
2017-Aug-10 03:30N 49°29' E 000°11'0 0.0
2017-Aug-10 03:00N 49°29' E 000°11'0 0.0
2017-Aug-10 02:30N 49°29' E 000°11'0 0.0
2017-Aug-10 02:00N 49°29' E 000°11'0 0.0
2017-Aug-10 01:30N 49°29' E 000°11'0 0.0
2017-Aug-10 01:00N 49°29' E 000°11'0 0.0
2017-Aug-10 00:30N 49°29' E 000°11'0 0.0
2017-Aug-10 00:00N 49°29' E 000°11'0 0.0
2017-Aug-09 23:30N 49°29' E 000°11'0 0.0
2017-Aug-09 23:00N 49°29' E 000°11'0 0.0
2017-Aug-09 22:30N 49°29' E 000°11'0 0.0
2017-Aug-09 22:00N 49°29' E 000°11'0 0.0
2017-Aug-09 21:30N 49°29' E 000°11'0 0.0
2017-Aug-09 21:00N 49°29' E 000°11'0 0.0
2017-Aug-09 20:30N 49°29' E 000°11'0 0.0
2017-Aug-09 19:59N 49°29' E 000°11'0 0.0
2017-Aug-09 19:29N 49°29' E 000°11'0 0.0
2017-Aug-09 18:59N 49°29' E 000°11'0 0.0
2017-Aug-09 18:29N 49°29' E 000°11'0 0.0
2017-Aug-09 17:59N 49°29' E 000°11'0 0.0
2017-Aug-09 17:29N 49°29' E 000°11'0 0.0
2017-Aug-09 16:59N 49°29' E 000°11'0 0.0
2017-Aug-09 16:29N 49°29' E 000°11'0 0.0
2017-Aug-09 15:59N 49°29' E 000°11'0 0.0
2017-Aug-09 15:29N 49°29' E 000°11'0 0.0
2017-Aug-09 14:59N 49°29' E 000°11'0 0.0
2017-Aug-09 14:29N 49°29' E 000°11'0 0.0
2017-Aug-09 13:59N 49°29' E 000°11'0 0.0
2017-Aug-09 13:29N 49°29' E 000°11'0 0.0
2017-Aug-09 12:59N 49°29' E 000°11'0 0.0
2017-Aug-09 12:29N 49°29' E 000°11'0 0.0
2017-Aug-09 11:59N 49°29' E 000°11'0 0.0
2017-Aug-09 11:29N 49°29' E 000°11'0 0.0
2017-Aug-09 10:59N 49°29' E 000°11'0 0.0
2017-Aug-09 10:29N 49°29' E 000°11'0 0.0
2017-Aug-09 09:59N 49°29' E 000°11'0 0.0
2017-Aug-09 09:29N 49°29' E 000°11'0 0.0
2017-Aug-09 08:59N 49°29' E 000°11'0 0.0
2017-Aug-09 08:29N 49°29' E 000°11'0 0.0
2017-Aug-09 07:59N 49°29' E 000°11'0 0.0
2017-Aug-09 07:29N 49°29' E 000°11'0 0.0
2017-Aug-09 06:59N 49°29' E 000°11'0 0.0
2017-Aug-09 06:29N 49°29' E 000°11'0 0.0
2017-Aug-09 05:59N 49°29' E 000°11'0 0.0
2017-Aug-09 05:29N 49°29' E 000°11'0 0.0
2017-Aug-09 04:59N 49°29' E 000°11'0 0.0
2017-Aug-09 04:29N 49°29' E 000°11'0 0.0
2017-Aug-09 03:59N 49°29' E 000°11'0 0.0
2017-Aug-09 03:29N 49°29' E 000°11'0 0.0
2017-Aug-09 02:59N 49°29' E 000°11'0 0.0
2017-Aug-09 02:29N 49°29' E 000°11'0 0.0
2017-Aug-09 01:59N 49°29' E 000°11'0 0.0
2017-Aug-09 01:29N 49°29' E 000°11'0 0.0
2017-Aug-09 00:59N 49°29' E 000°11'0 0.0
2017-Aug-09 00:29N 49°29' E 000°11'0 0.0
2017-Aug-08 23:59N 49°29' E 000°11'0 0.0
2017-Aug-08 23:29N 49°29' E 000°11'0 0.0
2017-Aug-08 22:59N 49°29' E 000°11'0 0.0
2017-Aug-08 22:29N 49°29' E 000°11'0 0.0
2017-Aug-08 21:59N 49°29' E 000°11'0 0.0
2017-Aug-08 21:29N 49°29' E 000°11'0 0.0
2017-Aug-08 20:59N 49°29' E 000°11'0 0.0
2017-Aug-08 20:29N 49°29' E 000°11'0 0.0
2017-Aug-08 19:59N 49°29' E 000°11'0 0.0
2017-Aug-08 19:29N 49°29' E 000°11'0 0.0
2017-Aug-08 18:59N 49°29' E 000°11'0 0.0
2017-Aug-08 18:29N 49°29' E 000°11'0 0.0
2017-Aug-08 17:59N 49°29' E 000°11'0 0.0
2017-Aug-08 17:29N 49°29' E 000°11'0 0.0
2017-Aug-08 16:59N 49°29' E 000°11'0 0.0
2017-Aug-08 16:29N 49°29' E 000°11'0 0.0
2017-Aug-08 15:59N 49°29' E 000°11'0 0.0
2017-Aug-08 15:29N 49°29' E 000°11'0 0.0
2017-Aug-08 14:59N 49°29' E 000°11'0 0.0
2017-Aug-08 14:29N 49°29' E 000°11'0 0.0
2017-Aug-08 13:59N 49°29' E 000°11'0 0.0
2017-Aug-08 13:29N 49°29' E 000°11'0 0.0
2017-Aug-08 12:59N 49°29' E 000°11'0 0.0
2017-Aug-08 12:29N 49°29' E 000°11'0 0.0
2017-Aug-08 11:59N 49°29' E 000°11'0 0.0
2017-Aug-08 11:29N 49°29' E 000°11'0 0.0
2017-Aug-08 10:59N 49°29' E 000°11'0 0.0
2017-Aug-08 10:29N 49°29' E 000°11'  
Track history (hours):
 
Tides and Currents Weather Stations Pressure Air Temp Water Temp Dewpoint Dewpoint Depression Visibility Wind Speed Wind Dir Waves Ship Positions

Chantaco

Last reported at 2017-Aug-18 10:28 UTC. Time now 2017-Aug-18 23:46 UTC.
Position N 54°03' E 000°42'.

Length 143 m; draft 6.4 m.

Type: Tanker. MMSI: 228330700.

Date/timePositionNaut miles runAvg speedWind from/ knotsBaromVisibWave heightAir tempDewpointWater temp
2017-Aug-18 10:28N 54°03' E 000°42'27912.8
2017-Aug-17 12:44N 56°56' E 007°07'312.6
2017-Aug-17 12:30N 56°58' E 007°11'612.7
2017-Aug-17 11:59N 57°01' E 007°21'612.9
2017-Aug-17 11:30N 57°04' E 007°31'612.7
2017-Aug-17 11:00N 57°08' E 007°41'612.8
2017-Aug-17 10:30N 57°11' E 007°51'712.7
2017-Aug-17 09:59N 57°14' E 008°02'612.8
2017-Aug-17 09:29N 57°18' E 008°12'612.5
2017-Aug-17 09:00N 57°21' E 008°22'612.4
2017-Aug-17 08:30N 57°24' E 008°32'612.6
2017-Aug-17 08:00N 57°27' E 008°42'612.7
2017-Aug-17 07:30N 57°30' E 008°52'612.4
2017-Aug-17 06:59N 57°34' E 009°02'612.4
2017-Aug-17 06:30N 57°37' E 009°12'612.6
2017-Aug-17 05:59N 57°40' E 009°22'612.9
2017-Aug-17 05:30N 57°44' E 009°32'713.2
2017-Aug-17 04:59N 57°47' E 009°43'2313.2
2017-Aug-17 03:14N 57°59' E 010°20'1613.2
2017-Aug-17 02:00N 58°08' E 010°46'912.2
2017-Aug-17 01:14N 58°12' E 011°02'312.7
2017-Aug-17 00:59N 58°13' E 011°07'611.6
2017-Aug-17 00:30N 58°16' E 011°16'4 8.6
2017-Aug-17 00:00N 58°19' E 011°22'3 5.7
2017-Aug-16 23:30N 58°21' E 011°25'0 0.0
2017-Aug-15 02:53N 58°21' E 011°26'0 0.8
2017-Aug-15 02:30N 58°22' E 011°26'2 4.2
2017-Aug-15 02:00N 58°20' E 011°23'611.6
2017-Aug-15 01:30N 58°16' E 011°15'4 7.5
2017-Aug-15 01:00N 58°12' E 011°14'0 0.0
2017-Aug-14 22:26N 58°12' E 011°14'0 0.0
2017-Aug-14 20:52N 58°12' E 011°14'0 0.0
2017-Aug-14 18:28N 58°12' E 011°14'0 0.0
2017-Aug-14 17:58N 58°12' E 011°14'0 0.0
2017-Aug-14 17:28N 58°12' E 011°14'0 0.0
2017-Aug-14 16:58N 58°12' E 011°14'0 0.0
2017-Aug-14 16:28N 58°12' E 011°14'0 0.0
2017-Aug-14 11:16N 58°12' E 011°14'0 0.0
2017-Aug-14 10:58N 58°12' E 011°14'0 0.0
2017-Aug-14 02:19N 58°12' E 011°14'0 0.1
2017-Aug-14 01:52N 58°12' E 011°14'0 0.0
2017-Aug-13 18:25N 58°12' E 011°14'0 0.0
2017-Aug-13 17:58N 58°12' E 011°14'0 0.0
2017-Aug-13 17:28N 58°12' E 011°14'0 0.0
2017-Aug-13 14:28N 58°12' E 011°14'0 0.0
2017-Aug-13 09:28N 58°12' E 011°14'0 0.0
2017-Aug-13 08:58N 58°12' E 011°14'0 0.0
2017-Aug-13 07:51N 58°12' E 011°14'0 0.1
2017-Aug-13 06:10N 58°12' E 011°14'1 5.8
2017-Aug-13 05:56N 58°12' E 011°11'511.5
2017-Aug-13 05:28N 58°11' E 011°01'612.8
2017-Aug-13 05:00N 58°08' E 010°51'613.0
2017-Aug-13 04:30N 58°05' E 010°41'613.0
2017-Aug-13 04:00N 58°02' E 010°30'812.8
2017-Aug-13 03:22N 57°58' E 010°17'713.2
2017-Aug-13 02:51N 57°54' E 010°06'513.5
2017-Aug-13 02:30N 57°52' E 009°58'40612.5
2017-Aug-11 17:57N 52°19' E 003°11'5413.5
2017-Aug-11 13:59N 51°36' E 002°20'613.3
2017-Aug-11 13:30N 51°31' E 002°14'713.0
2017-Aug-11 13:00N 51°26' E 002°07'612.4
2017-Aug-11 12:30N 51°21' E 002°00'611.8
2017-Aug-11 12:00N 51°17' E 001°54'611.2
2017-Aug-11 11:30N 51°13' E 001°48'510.1
2017-Aug-11 11:00N 51°09' E 001°43'5 9.2
2017-Aug-11 10:30N 51°05' E 001°39'5 9.2
2017-Aug-11 10:00N 51°01' E 001°34'5 9.1
2017-Aug-11 09:30N 50°58' E 001°29'4 8.8
2017-Aug-11 09:00N 50°54' E 001°26'5 9.2
2017-Aug-11 08:30N 50°50' E 001°24'5 9.6
2017-Aug-11 08:00N 50°45' E 001°22'7810.9
2017-Aug-11 00:50N 49°47' E 000°01'412.7
2017-Aug-11 00:30N 49°43' W 000°03'612.5
2017-Aug-11 00:00N 49°37' W 000°05'612.1
2017-Aug-10 23:30N 49°31' W 000°05'510.6
2017-Aug-10 23:00N 49°30' E 000°02'5 9.6
2017-Aug-10 22:30N 49°28' E 000°10'1 1.2
2017-Aug-10 22:00N 49°29' E 000°10'1 1.1
2017-Aug-10 21:30N 49°29' E 000°11'0 0.0
2017-Aug-10 21:00N 49°29' E 000°11'0 0.0
2017-Aug-10 20:30N 49°29' E 000°11'0 0.0
2017-Aug-10 20:00N 49°29' E 000°11'0 0.0
2017-Aug-10 19:30N 49°29' E 000°11'0 0.0
2017-Aug-10 19:00N 49°29' E 000°11'0 0.0
2017-Aug-10 18:30N 49°29' E 000°11'0 0.0
2017-Aug-10 18:00N 49°29' E 000°11'0 0.0
2017-Aug-10 17:30N 49°29' E 000°11'0 0.0
2017-Aug-10 17:00N 49°29' E 000°11'0 0.0
2017-Aug-10 16:30N 49°29' E 000°11'0 0.0
2017-Aug-10 16:00N 49°29' E 000°11'0 0.0
2017-Aug-10 15:30N 49°29' E 000°11'0 0.0
2017-Aug-10 15:00N 49°29' E 000°11'0 0.0
2017-Aug-10 14:30N 49°29' E 000°11'0 0.0
2017-Aug-10 13:57N 49°29' E 000°11'0 0.0
2017-Aug-10 13:30N 49°29' E 000°11'0 0.0
2017-Aug-10 13:00N 49°29' E 000°11'0 0.0
2017-Aug-10 12:30N 49°29' E 000°11'0 0.0
2017-Aug-10 12:00N 49°29' E 000°11'0 0.0
2017-Aug-10 11:30N 49°29' E 000°11'0 0.0
2017-Aug-10 11:00N 49°29' E 000°11'0 0.0
2017-Aug-10 10:30N 49°29' E 000°11'0 0.0
2017-Aug-10 10:00N 49°29' E 000°11'0 0.0
2017-Aug-10 09:27N 49°29' E 000°11'0 0.0
2017-Aug-10 08:57N 49°29' E 000°11'0 0.0
2017-Aug-10 08:30N 49°29' E 000°11'0 0.0
2017-Aug-10 08:00N 49°29' E 000°11'0 0.0
2017-Aug-10 07:30N 49°29' E 000°11'0 0.0
2017-Aug-10 07:00N 49°29' E 000°11'0 0.0
2017-Aug-10 06:30N 49°29' E 000°11'0 0.0
2017-Aug-10 06:00N 49°29' E 000°11'0 0.0
2017-Aug-10 05:27N 49°29' E 000°11'0 0.0
2017-Aug-10 05:00N 49°29' E 000°11'0 0.0
2017-Aug-10 04:30N 49°29' E 000°11'0 0.0
2017-Aug-10 04:00N 49°29' E 000°11'0 0.0
2017-Aug-10 03:30N 49°29' E 000°11'0 0.0
2017-Aug-10 03:00N 49°29' E 000°11'0 0.0
2017-Aug-10 02:30N 49°29' E 000°11'0 0.0
2017-Aug-10 02:00N 49°29' E 000°11'0 0.0
2017-Aug-10 01:30N 49°29' E 000°11'0 0.0
2017-Aug-10 01:00N 49°29' E 000°11'0 0.0
2017-Aug-10 00:30N 49°29' E 000°11'0 0.0
2017-Aug-10 00:00N 49°29' E 000°11'0 0.0
2017-Aug-09 23:30N 49°29' E 000°11'0 0.0
2017-Aug-09 23:00N 49°29' E 000°11'0 0.0
2017-Aug-09 22:30N 49°29' E 000°11'0 0.0
2017-Aug-09 22:00N 49°29' E 000°11'0 0.0
2017-Aug-09 21:30N 49°29' E 000°11'0 0.0
2017-Aug-09 21:00N 49°29' E 000°11'0 0.0
2017-Aug-09 20:30N 49°29' E 000°11'0 0.0
2017-Aug-09 19:59N 49°29' E 000°11'0 0.0
2017-Aug-09 19:29N 49°29' E 000°11'0 0.0
2017-Aug-09 18:59N 49°29' E 000°11'0 0.0
2017-Aug-09 18:29N 49°29' E 000°11'0 0.0
2017-Aug-09 17:59N 49°29' E 000°11'0 0.0
2017-Aug-09 17:29N 49°29' E 000°11'0 0.0
2017-Aug-09 16:59N 49°29' E 000°11'0 0.0
2017-Aug-09 16:29N 49°29' E 000°11'0 0.0
2017-Aug-09 15:59N 49°29' E 000°11'0 0.0
2017-Aug-09 15:29N 49°29' E 000°11'0 0.0
2017-Aug-09 14:59N 49°29' E 000°11'0 0.0
2017-Aug-09 14:29N 49°29' E 000°11'0 0.0
2017-Aug-09 13:59N 49°29' E 000°11'0 0.0
2017-Aug-09 13:29N 49°29' E 000°11'0 0.0
2017-Aug-09 12:59N 49°29' E 000°11'0 0.0
2017-Aug-09 12:29N 49°29' E 000°11'0 0.0
2017-Aug-09 11:59N 49°29' E 000°11'0 0.0
2017-Aug-09 11:29N 49°29' E 000°11'0 0.0
2017-Aug-09 10:59N 49°29' E 000°11'0 0.0
2017-Aug-09 10:29N 49°29' E 000°11'0 0.0
2017-Aug-09 09:59N 49°29' E 000°11'0 0.0
2017-Aug-09 09:29N 49°29' E 000°11'0 0.0
2017-Aug-09 08:59N 49°29' E 000°11'0 0.0
2017-Aug-09 08:29N 49°29' E 000°11'0 0.0
2017-Aug-09 07:59N 49°29' E 000°11'0 0.0
2017-Aug-09 07:29N 49°29' E 000°11'0 0.0
2017-Aug-09 06:59N 49°29' E 000°11'0 0.0
2017-Aug-09 06:29N 49°29' E 000°11'0 0.0
2017-Aug-09 05:59N 49°29' E 000°11'0 0.0
2017-Aug-09 05:29N 49°29' E 000°11'0 0.0
2017-Aug-09 04:59N 49°29' E 000°11'0 0.0
2017-Aug-09 04:29N 49°29' E 000°11'0 0.0
2017-Aug-09 03:59N 49°29' E 000°11'0 0.0
2017-Aug-09 03:29N 49°29' E 000°11'0 0.0
2017-Aug-09 02:59N 49°29' E 000°11'0 0.0
2017-Aug-09 02:29N 49°29' E 000°11'0 0.0
2017-Aug-09 01:59N 49°29' E 000°11'0 0.0
2017-Aug-09 01:29N 49°29' E 000°11'0 0.0
2017-Aug-09 00:59N 49°29' E 000°11'0 0.0
2017-Aug-09 00:29N 49°29' E 000°11'0 0.0
2017-Aug-08 23:59N 49°29' E 000°11'0 0.0
2017-Aug-08 23:29N 49°29' E 000°11'0 0.0
2017-Aug-08 22:59N 49°29' E 000°11'0 0.0
2017-Aug-08 22:29N 49°29' E 000°11'0 0.0
2017-Aug-08 21:59N 49°29' E 000°11'0 0.0
2017-Aug-08 21:29N 49°29' E 000°11'0 0.0
2017-Aug-08 20:59N 49°29' E 000°11'0 0.0
2017-Aug-08 20:29N 49°29' E 000°11'0 0.0
2017-Aug-08 19:59N 49°29' E 000°11'0 0.0
2017-Aug-08 19:29N 49°29' E 000°11'0 0.0
2017-Aug-08 18:59N 49°29' E 000°11'0 0.0
2017-Aug-08 18:29N 49°29' E 000°11'0 0.0
2017-Aug-08 17:59N 49°29' E 000°11'0 0.0
2017-Aug-08 17:29N 49°29' E 000°11'0 0.0
2017-Aug-08 16:59N 49°29' E 000°11'0 0.0
2017-Aug-08 16:29N 49°29' E 000°11'0 0.0
2017-Aug-08 15:59N 49°29' E 000°11'0 0.0
2017-Aug-08 15:29N 49°29' E 000°11'0 0.0
2017-Aug-08 14:59N 49°29' E 000°11'0 0.0
2017-Aug-08 14:29N 49°29' E 000°11'0 0.0
2017-Aug-08 13:59N 49°29' E 000°11'0 0.0
2017-Aug-08 13:29N 49°29' E 000°11'0 0.0
2017-Aug-08 12:59N 49°29' E 000°11'0 0.0
2017-Aug-08 12:29N 49°29' E 000°11'0 0.0
2017-Aug-08 11:59N 49°29' E 000°11'0 0.0
2017-Aug-08 11:29N 49°29' E 000°11'0 0.0
2017-Aug-08 10:59N 49°29' E 000°11'0 0.0
2017-Aug-08 10:29N 49°29' E 000°11'  

Dump ship's entire track history